createdAt,value
2023-04-26T00:00:01.686Z,4.66
2023-04-26T00:01:01.690Z,4.66
2023-04-26T00:02:01.638Z,4.60
2023-04-26T00:03:01.743Z,4.53
2023-04-26T00:04:01.997Z,4.46
2023-04-26T00:05:01.811Z,4.42
2023-04-26T00:06:01.607Z,4.39
2023-04-26T00:07:01.666Z,4.34
2023-04-26T00:08:01.674Z,4.31
2023-04-26T00:09:01.591Z,4.31
2023-04-26T00:10:01.608Z,4.35
2023-04-26T00:11:01.593Z,4.34
2023-04-26T00:12:01.594Z,4.30
2023-04-26T00:13:01.605Z,4.30
2023-04-26T00:14:01.513Z,4.31
2023-04-26T00:15:01.532Z,4.31
2023-04-26T00:16:01.556Z,4.34
2023-04-26T00:17:01.489Z,4.35
2023-04-26T00:18:01.533Z,4.38
2023-04-26T00:19:01.467Z,4.39
2023-04-26T00:20:01.496Z,4.38
2023-04-26T00:21:01.465Z,4.36
2023-04-26T00:22:01.507Z,4.36
2023-04-26T00:23:01.453Z,4.39
2023-04-26T00:24:01.437Z,4.38
2023-04-26T00:25:01.431Z,4.36
2023-04-26T00:26:01.438Z,4.34
2023-04-26T00:27:01.388Z,4.35
2023-04-26T00:28:01.392Z,4.34
2023-04-26T00:29:01.366Z,4.31
2023-04-26T00:30:01.358Z,4.31
2023-04-26T00:31:01.338Z,4.31
2023-04-26T00:32:01.392Z,4.31
2023-04-26T00:33:01.434Z,4.30
2023-04-26T00:34:01.307Z,4.28
2023-04-26T00:35:01.302Z,4.28
2023-04-26T00:36:01.288Z,4.26
2023-04-26T00:37:01.302Z,4.27
2023-04-26T00:38:01.265Z,4.24
2023-04-26T00:39:01.302Z,4.23
2023-04-26T00:40:01.249Z,4.20
2023-04-26T00:41:01.240Z,4.18
2023-04-26T00:42:01.261Z,4.13
2023-04-26T00:43:01.331Z,4.12
2023-04-26T00:44:01.212Z,4.08
2023-04-26T00:45:01.220Z,4.05
2023-04-26T00:46:01.249Z,3.99
2023-04-26T00:47:01.183Z,3.96
2023-04-26T00:48:01.271Z,3.94
2023-04-26T00:49:01.184Z,3.91
2023-04-26T00:50:01.155Z,3.90
2023-04-26T00:51:01.149Z,3.85
2023-04-26T00:52:01.155Z,3.82
2023-04-26T00:53:01.169Z,3.81
2023-04-26T00:54:01.104Z,3.78
2023-04-26T00:55:01.101Z,3.78
2023-04-26T00:56:01.089Z,3.80
2023-04-26T00:57:01.071Z,3.81
2023-04-26T00:58:01.064Z,3.82
2023-04-26T00:59:01.152Z,3.82
2023-04-26T01:00:01.058Z,3.81
2023-04-26T01:01:01.088Z,3.82
2023-04-26T01:02:01.052Z,3.84
2023-04-26T01:03:01.069Z,3.85
2023-04-26T01:04:01.262Z,3.85
2023-04-26T01:05:01.011Z,3.82
2023-04-26T01:06:00.984Z,3.78
2023-04-26T01:07:00.974Z,3.72
2023-04-26T01:08:00.985Z,3.69
2023-04-26T01:09:00.938Z,3.64
2023-04-26T01:10:00.941Z,3.62
2023-04-26T01:11:00.930Z,3.55
2023-04-26T01:12:00.949Z,3.54
2023-04-26T01:13:00.898Z,3.49
2023-04-26T01:14:00.894Z,3.46
2023-04-26T01:15:00.919Z,3.42
2023-04-26T01:16:00.867Z,3.41
2023-04-26T01:17:00.873Z,3.35
2023-04-26T01:18:00.979Z,3.32
2023-04-26T01:19:00.830Z,3.29
2023-04-26T01:20:00.858Z,3.26
2023-04-26T01:21:02.824Z,3.23
2023-04-26T01:22:00.830Z,3.20
2023-04-26T01:23:00.792Z,3.18
2023-04-26T01:24:00.785Z,3.15
2023-04-26T01:25:00.792Z,3.12
2023-04-26T01:26:00.766Z,3.11
2023-04-26T01:27:00.793Z,3.07
2023-04-26T01:28:00.754Z,3.08
2023-04-26T01:29:00.740Z,3.07
2023-04-26T01:30:00.752Z,3.05
2023-04-26T01:31:00.733Z,3.04
2023-04-26T01:32:00.761Z,3.04
2023-04-26T01:33:00.762Z,3.09
2023-04-26T01:34:00.682Z,3.12
2023-04-26T01:35:00.717Z,3.18
2023-04-26T01:36:00.662Z,3.22
2023-04-26T01:37:00.731Z,3.27
2023-04-26T01:38:00.630Z,3.29
2023-04-26T01:39:00.621Z,3.32
2023-04-26T01:40:00.655Z,3.30
2023-04-26T01:41:00.600Z,3.27
2023-04-26T01:42:00.672Z,3.23
2023-04-26T01:43:00.581Z,3.18
2023-04-26T01:44:00.572Z,3.14
2023-04-26T01:45:00.557Z,3.09
2023-04-26T01:46:00.648Z,3.07
2023-04-26T01:47:00.533Z,3.00
2023-04-26T01:48:00.599Z,2.99
2023-04-26T01:49:00.541Z,2.94
2023-04-26T01:50:00.521Z,2.90
2023-04-26T01:51:00.492Z,2.89
2023-04-26T01:52:00.558Z,2.84
2023-04-26T01:53:00.465Z,2.84
2023-04-26T01:54:00.464Z,2.86
2023-04-26T01:55:00.506Z,2.87
2023-04-26T01:56:00.443Z,2.90
2023-04-26T01:57:00.542Z,2.90
2023-04-26T01:58:00.424Z,2.87
2023-04-26T01:59:00.407Z,2.84
2023-04-26T02:00:00.459Z,2.81
2023-04-26T02:01:00.389Z,2.79
2023-04-26T02:02:00.688Z,2.76
2023-04-26T02:03:00.510Z,2.75
2023-04-26T02:04:00.360Z,2.75
2023-04-26T02:05:00.466Z,2.73
2023-04-26T02:06:00.341Z,2.73
2023-04-26T02:07:00.386Z,2.71
2023-04-26T02:08:00.328Z,2.68
2023-04-26T02:09:00.295Z,2.65
2023-04-26T02:10:00.338Z,2.58
2023-04-26T02:11:00.296Z,2.55
2023-04-26T02:12:00.275Z,2.54
2023-04-26T02:13:00.261Z,2.53
2023-04-26T02:14:00.249Z,2.53
2023-04-26T02:15:00.237Z,2.53
2023-04-26T02:16:00.293Z,2.50
2023-04-26T02:17:00.224Z,2.48
2023-04-26T02:18:00.280Z,2.47
2023-04-26T02:19:00.215Z,2.47
2023-04-26T02:20:00.248Z,2.43
2023-04-26T02:21:00.181Z,2.43
2023-04-26T02:22:00.166Z,2.40
2023-04-26T02:23:00.163Z,2.40
2023-04-26T02:24:00.159Z,2.39
2023-04-26T02:25:00.174Z,2.39
2023-04-26T02:26:00.161Z,2.37
2023-04-26T02:27:00.118Z,2.36
2023-04-26T02:28:00.154Z,2.35
2023-04-26T02:29:00.142Z,2.36
2023-04-26T02:30:00.104Z,2.35
2023-04-26T02:31:00.093Z,2.36
2023-04-26T02:32:00.071Z,2.36
2023-04-26T02:33:00.166Z,2.33
2023-04-26T02:34:00.097Z,2.32
2023-04-26T02:35:00.034Z,2.30
2023-04-26T02:36:00.024Z,2.29
2023-04-26T02:37:00.041Z,2.28
2023-04-26T02:37:59.998Z,2.29
2023-04-26T02:39:00.037Z,2.32
2023-04-26T02:39:59.973Z,2.35
2023-04-26T02:40:59.970Z,2.42
2023-04-26T02:41:59.956Z,2.47
2023-04-26T02:42:59.961Z,2.51
2023-04-26T02:43:59.936Z,2.54
2023-04-26T02:44:59.976Z,2.55
2023-04-26T02:45:59.919Z,2.55
2023-04-26T02:46:59.962Z,2.53
2023-04-26T02:47:59.934Z,2.48
2023-04-26T02:48:59.922Z,2.45
2023-04-26T02:49:59.887Z,2.42
2023-04-26T02:50:59.930Z,2.40
2023-04-26T02:51:59.875Z,2.36
2023-04-26T02:52:59.854Z,2.35
2023-04-26T02:53:59.825Z,2.33
2023-04-26T02:54:59.808Z,2.29
2023-04-26T02:55:59.829Z,2.28
2023-04-26T02:56:59.794Z,2.25
2023-04-26T02:57:59.794Z,2.24
2023-04-26T02:58:59.770Z,2.24
2023-04-26T02:59:59.791Z,2.24
2023-04-26T03:01:01.651Z,2.29
2023-04-26T03:01:59.821Z,2.32
2023-04-26T03:02:59.864Z,2.33
2023-04-26T03:03:59.827Z,2.35
2023-04-26T03:04:59.795Z,2.33
2023-04-26T03:05:59.721Z,2.37
2023-04-26T03:06:59.682Z,2.42
2023-04-26T03:07:59.675Z,2.47
2023-04-26T03:08:59.661Z,2.51
2023-04-26T03:09:59.720Z,2.55
2023-04-26T03:10:59.638Z,2.60
2023-04-26T03:11:59.676Z,2.66
2023-04-26T03:12:59.619Z,2.68
2023-04-26T03:13:59.612Z,2.68
2023-04-26T03:14:59.594Z,2.63
2023-04-26T03:15:59.591Z,2.61
2023-04-26T03:16:59.692Z,2.58
2023-04-26T03:17:59.582Z,2.60
2023-04-26T03:18:59.550Z,2.60
2023-04-26T03:20:01.841Z,2.61
2023-04-26T03:20:59.573Z,2.63
2023-04-26T03:21:59.558Z,2.66
2023-04-26T03:22:59.514Z,2.68
2023-04-26T03:23:59.509Z,2.69
2023-04-26T03:24:59.498Z,2.69
2023-04-26T03:25:59.492Z,2.68
2023-04-26T03:26:59.660Z,2.69
2023-04-26T03:27:59.467Z,2.71
2023-04-26T03:28:59.465Z,2.72
2023-04-26T03:29:59.454Z,2.73
2023-04-26T03:30:59.429Z,2.71
2023-04-26T03:31:59.495Z,2.66
2023-04-26T03:32:59.468Z,2.61
2023-04-26T03:33:59.422Z,2.54
2023-04-26T03:34:59.393Z,2.48
2023-04-26T03:35:59.395Z,2.42
2023-04-26T03:36:59.378Z,2.37
2023-04-26T03:37:59.815Z,2.33
2023-04-26T03:38:59.340Z,2.28
2023-04-26T03:39:59.341Z,2.30
2023-04-26T03:40:59.334Z,2.29
2023-04-26T03:41:59.318Z,2.30
2023-04-26T03:42:59.313Z,2.35
2023-04-26T03:43:59.349Z,2.36
2023-04-26T03:44:59.275Z,2.40
2023-04-26T03:45:59.336Z,2.43
2023-04-26T03:46:59.263Z,2.42
2023-04-26T03:47:59.290Z,2.37
2023-04-26T03:48:59.233Z,2.35
2023-04-26T03:49:59.283Z,2.30
2023-04-26T03:50:59.212Z,2.24
2023-04-26T03:51:59.272Z,2.19
2023-04-26T03:52:59.191Z,2.14
2023-04-26T03:53:59.203Z,2.10
2023-04-26T03:54:59.208Z,2.04
2023-04-26T03:55:59.195Z,2.01
2023-04-26T03:56:59.213Z,2.01
2023-04-26T03:57:59.205Z,2.01
2023-04-26T03:58:59.136Z,2.03
2023-04-26T03:59:59.141Z,2.03
2023-04-26T04:00:59.114Z,2.00
2023-04-26T04:01:59.153Z,2.03
2023-04-26T04:02:59.211Z,2.01
2023-04-26T04:03:59.389Z,2.03
2023-04-26T04:04:59.222Z,2.03
2023-04-26T04:05:59.088Z,2.03
2023-04-26T04:06:59.045Z,2.03
2023-04-26T04:07:59.037Z,2.00
2023-04-26T04:08:59.020Z,2.00
2023-04-26T04:09:59.034Z,2.00
2023-04-26T04:10:59.010Z,1.97
2023-04-26T04:11:59.042Z,1.97
2023-04-26T04:12:58.977Z,1.95
2023-04-26T04:13:59.032Z,1.93
2023-04-26T04:14:58.957Z,1.92
2023-04-26T04:15:59.025Z,1.92
2023-04-26T04:16:58.946Z,1.91
2023-04-26T04:17:59.092Z,1.87
2023-04-26T04:18:58.919Z,1.92
2023-04-26T04:19:58.916Z,1.93
2023-04-26T04:20:58.899Z,1.97
2023-04-26T04:21:58.889Z,2.06
2023-04-26T04:23:01.144Z,2.12
2023-04-26T04:23:58.897Z,2.19
2023-04-26T04:24:58.945Z,2.24
2023-04-26T04:25:58.852Z,2.29
2023-04-26T04:26:58.838Z,2.33
2023-04-26T04:27:58.830Z,2.36
2023-04-26T04:28:58.813Z,2.33
2023-04-26T04:29:58.852Z,2.33
2023-04-26T04:30:58.826Z,2.29
2023-04-26T04:31:58.792Z,2.22
2023-04-26T04:32:58.802Z,2.19
2023-04-26T04:33:58.817Z,2.17
2023-04-26T04:34:58.757Z,2.15
2023-04-26T04:35:58.759Z,2.17
2023-04-26T04:36:58.732Z,2.11
2023-04-26T04:37:58.730Z,2.10
2023-04-26T04:38:58.709Z,2.06
2023-04-26T04:39:59.222Z,2.03
2023-04-26T04:40:58.687Z,2.01
2023-04-26T04:41:58.724Z,2.04
2023-04-26T04:42:58.661Z,2.07
2023-04-26T04:43:58.669Z,2.12
2023-04-26T04:44:58.643Z,2.15
2023-04-26T04:45:58.715Z,2.21
2023-04-26T04:46:58.668Z,2.28
2023-04-26T04:47:58.748Z,2.33
2023-04-26T04:48:58.602Z,2.35
2023-04-26T04:49:58.601Z,2.36
2023-04-26T04:50:58.588Z,2.40
2023-04-26T04:51:58.602Z,2.50
2023-04-26T04:52:58.565Z,2.57
2023-04-26T04:53:58.601Z,2.60
2023-04-26T04:54:58.541Z,2.65
2023-04-26T04:55:58.675Z,2.68
2023-04-26T04:56:58.517Z,2.73
2023-04-26T04:57:58.517Z,2.76
2023-04-26T04:58:58.497Z,2.76
2023-04-26T04:59:59.429Z,2.81
2023-04-26T05:00:59.556Z,2.84
2023-04-26T05:01:58.502Z,2.87
2023-04-26T05:02:58.674Z,2.94
2023-04-26T05:04:00.896Z,2.99
2023-04-26T05:04:58.524Z,3.00
2023-04-26T05:05:58.482Z,3.02
2023-04-26T05:06:58.424Z,3.05
2023-04-26T05:07:58.435Z,3.07
2023-04-26T05:08:58.394Z,3.08
2023-04-26T05:10:00.091Z,3.09
2023-04-26T05:10:58.373Z,3.14
2023-04-26T05:11:58.367Z,3.18
2023-04-26T05:12:58.363Z,3.20
2023-04-26T05:13:58.499Z,3.23
2023-04-26T05:14:58.438Z,3.22
2023-04-26T05:15:58.375Z,3.23
2023-04-26T05:16:58.336Z,3.25
2023-04-26T05:22:26.285Z,3.36
2023-04-26T05:23:26.195Z,3.35
2023-04-26T05:24:26.205Z,3.35
2023-04-26T05:25:26.168Z,3.36
2023-04-26T05:26:26.195Z,3.41
2023-04-26T05:27:26.197Z,3.41
2023-04-26T05:28:26.147Z,3.44
2023-04-26T05:29:26.132Z,3.45
2023-04-26T05:30:26.164Z,3.46
2023-04-26T05:31:26.798Z,3.51
2023-04-26T05:32:26.177Z,3.52
2023-04-26T05:33:26.158Z,3.55
2023-04-26T05:34:26.116Z,3.55
2023-04-26T05:35:26.068Z,3.60
2023-04-26T05:36:27.916Z,3.62
2023-04-26T05:37:26.118Z,3.63
2023-04-26T05:38:26.110Z,3.64
2023-04-26T05:39:26.037Z,3.62
2023-04-26T05:40:25.997Z,3.63
2023-04-26T05:41:26.006Z,3.55
2023-04-26T05:42:25.977Z,3.54
2023-04-26T05:43:26.015Z,3.52
2023-04-26T05:44:25.953Z,3.52
2023-04-26T05:45:26.002Z,3.54
2023-04-26T05:46:26.026Z,3.56
2023-04-26T05:47:25.942Z,3.56
2023-04-26T05:48:25.915Z,3.56
2023-04-26T05:49:25.947Z,3.60
2023-04-26T05:50:25.898Z,3.62
2023-04-26T05:51:25.887Z,3.64
2023-04-26T05:52:25.860Z,3.66
2023-04-26T05:53:25.884Z,3.66
2023-04-26T05:54:25.879Z,3.70
2023-04-26T05:55:25.835Z,3.74
2023-04-26T05:56:25.820Z,3.78
2023-04-26T05:57:25.872Z,3.81
2023-04-26T05:58:27.648Z,3.85
2023-04-26T05:59:25.842Z,3.88
2023-04-26T06:00:25.795Z,3.94
2023-04-26T06:01:25.781Z,3.98
2023-04-26T06:02:25.891Z,4.02
2023-04-26T06:03:25.899Z,4.05
2023-04-26T06:04:26.031Z,4.08
2023-04-26T06:05:27.558Z,4.10
2023-04-26T06:06:25.742Z,4.12
2023-04-26T06:07:25.749Z,4.17
2023-04-26T06:08:25.693Z,4.23
2023-04-26T06:09:25.690Z,4.26
2023-04-26T06:10:25.673Z,4.34
2023-04-26T06:11:28.084Z,4.38
2023-04-26T06:12:25.705Z,4.45
2023-04-26T06:13:27.411Z,4.49
2023-04-26T06:14:30.454Z,4.56
2023-04-26T06:15:28.588Z,4.60
2023-04-26T06:16:25.695Z,4.64
2023-04-26T06:17:25.640Z,4.69
2023-04-26T06:18:25.625Z,4.74
2023-04-26T06:19:25.597Z,4.79
2023-04-26T06:20:25.567Z,4.85
2023-04-26T06:21:25.559Z,4.88
2023-04-26T06:22:25.567Z,4.91
2023-04-26T06:23:25.550Z,4.96
2023-04-26T06:24:25.627Z,4.98
2023-04-26T06:25:25.563Z,5.03
2023-04-26T06:26:25.551Z,5.03
2023-04-26T06:27:25.533Z,5.03
2023-04-26T06:28:25.530Z,5.07
2023-04-26T06:29:25.517Z,5.11
2023-04-26T06:30:25.468Z,5.11
2023-04-26T06:31:25.525Z,5.12
2023-04-26T06:32:25.465Z,5.15
2023-04-26T06:33:25.514Z,5.18
2023-04-26T06:34:25.490Z,5.22
2023-04-26T06:35:25.404Z,5.27
2023-04-26T06:36:27.273Z,5.32
2023-04-26T06:37:25.396Z,5.34
2023-04-26T06:38:25.372Z,5.36
2023-04-26T06:39:25.393Z,5.41
2023-04-26T06:40:25.360Z,5.48
2023-04-26T06:41:25.400Z,5.52
2023-04-26T06:42:25.359Z,5.57
2023-04-26T06:43:25.335Z,5.61
2023-04-26T06:44:25.354Z,5.65
2023-04-26T06:45:25.358Z,5.70
2023-04-26T06:46:25.386Z,5.76
2023-04-26T06:47:26.151Z,5.77
2023-04-26T06:48:25.268Z,5.76
2023-04-26T06:49:25.412Z,5.77
2023-04-26T06:50:25.256Z,5.76
2023-04-26T06:51:25.260Z,5.79
2023-04-26T06:52:28.517Z,5.84
2023-04-26T06:53:25.276Z,5.88
2023-04-26T06:54:25.207Z,5.90
2023-04-26T06:55:25.204Z,5.93
2023-04-26T06:56:25.206Z,5.98
2023-04-26T06:57:25.228Z,6.00
2023-04-26T06:58:25.188Z,6.06
2023-04-26T06:59:29.728Z,6.09
2023-04-26T07:00:25.163Z,6.12
2023-04-26T07:01:25.171Z,6.16
2023-04-26T07:02:25.299Z,6.24
2023-04-26T07:03:25.255Z,6.28
2023-04-26T07:04:25.337Z,6.28
2023-04-26T07:05:26.992Z,6.30
2023-04-26T07:06:25.097Z,6.32
2023-04-26T07:07:25.081Z,6.35
2023-04-26T07:08:26.572Z,6.38
2023-04-26T07:09:25.057Z,6.42
2023-04-26T07:10:25.042Z,6.45
2023-04-26T07:11:26.284Z,6.46
2023-04-26T07:12:25.022Z,6.50
2023-04-26T07:13:26.913Z,6.50
2023-04-26T07:14:25.034Z,6.52
2023-04-26T07:15:25.066Z,6.56
2023-04-26T07:16:24.997Z,6.61
2023-04-26T07:17:24.967Z,6.63
2023-04-26T07:18:28.652Z,6.65
2023-04-26T07:19:24.961Z,6.65
2023-04-26T07:20:24.933Z,6.56
2023-04-26T07:21:24.922Z,6.57
2023-04-26T07:22:25.363Z,6.56
2023-04-26T07:23:24.901Z,6.56
2023-04-26T07:24:24.982Z,6.57
2023-04-26T07:25:24.882Z,6.60
2023-04-26T07:26:24.876Z,6.57
2023-04-26T07:27:24.926Z,6.55
2023-04-26T07:28:24.845Z,6.50
2023-04-26T07:29:24.853Z,6.52
2023-04-26T07:30:24.845Z,6.53
2023-04-26T07:31:24.814Z,6.56
2023-04-26T07:32:24.856Z,6.60
2023-04-26T07:33:24.974Z,6.61
2023-04-26T07:34:26.540Z,6.67
2023-04-26T07:35:24.794Z,6.71
2023-04-26T07:36:25.237Z,6.78
2023-04-26T07:37:24.754Z,6.83
2023-04-26T07:38:24.740Z,6.83
2023-04-26T07:39:24.743Z,6.86
2023-04-26T07:40:24.828Z,6.89
2023-04-26T07:41:24.708Z,6.93
2023-04-26T07:42:24.696Z,6.97
2023-04-26T07:43:24.686Z,7.00
2023-04-26T07:44:24.669Z,7.06
2023-04-26T07:45:24.704Z,7.07
2023-04-26T07:46:26.720Z,7.07
2023-04-26T07:47:24.659Z,7.10
2023-04-26T07:48:24.658Z,7.13
2023-04-26T07:49:24.636Z,7.16
2023-04-26T07:50:24.668Z,7.16
2023-04-26T07:51:24.594Z,7.18
2023-04-26T07:52:24.630Z,7.18
2023-04-26T07:53:24.564Z,7.13
2023-04-26T07:54:24.600Z,7.10
2023-04-26T07:55:24.571Z,7.08
2023-04-26T07:56:24.606Z,7.07
2023-04-26T07:57:24.562Z,7.08
2023-04-26T07:58:24.656Z,7.10
2023-04-26T07:59:25.740Z,7.11
2023-04-26T08:00:26.361Z,7.15
2023-04-26T08:01:24.496Z,7.21
2023-04-26T08:02:36.825Z,7.24
2023-04-26T08:03:25.630Z,7.26
2023-04-26T08:04:24.591Z,7.21
2023-04-26T08:05:24.739Z,7.18
2023-04-26T08:06:24.501Z,7.18
2023-04-26T08:07:24.481Z,7.19
2023-04-26T08:08:24.403Z,7.24
2023-04-26T08:09:24.406Z,7.31
2023-04-26T08:10:24.437Z,7.34
2023-04-26T08:11:24.496Z,7.40
2023-04-26T08:12:24.417Z,7.44
2023-04-26T08:13:26.327Z,7.49
2023-04-26T08:14:24.383Z,7.50
2023-04-26T08:15:24.346Z,7.52
2023-04-26T08:16:24.386Z,7.49
2023-04-26T08:17:24.338Z,7.46
2023-04-26T08:18:24.333Z,7.49
2023-04-26T08:19:24.441Z,7.55
2023-04-26T08:20:24.422Z,7.49
2023-04-26T08:21:24.306Z,7.46
2023-04-26T08:22:25.272Z,7.40
2023-04-26T08:23:24.251Z,7.39
2023-04-26T08:24:24.249Z,7.39
2023-04-26T08:25:24.274Z,7.37
2023-04-26T08:26:25.507Z,7.33
2023-04-26T08:27:24.295Z,7.25
2023-04-26T08:28:24.221Z,7.22
2023-04-26T08:29:24.183Z,7.24
2023-04-26T08:30:24.223Z,7.26
2023-04-26T08:31:24.275Z,7.29
2023-04-26T08:32:24.199Z,7.36
2023-04-26T08:33:24.144Z,7.37
2023-04-26T08:34:24.155Z,7.36
2023-04-26T08:35:24.113Z,7.37
2023-04-26T08:36:26.048Z,7.42
2023-04-26T08:37:24.155Z,7.47
2023-04-26T08:38:24.187Z,7.47
2023-04-26T08:39:24.097Z,7.50
2023-04-26T08:40:24.077Z,7.52
2023-04-26T08:41:25.814Z,7.57
2023-04-26T08:42:24.047Z,7.55
2023-04-26T08:43:24.070Z,7.55
2023-04-26T08:44:24.038Z,7.61
2023-04-26T08:45:24.042Z,7.64
2023-04-26T08:46:27.702Z,7.73
2023-04-26T08:47:24.021Z,7.76
2023-04-26T08:48:23.986Z,7.80
2023-04-26T08:49:24.024Z,7.84
2023-04-26T08:50:24.240Z,7.84
2023-04-26T08:51:23.969Z,7.87
2023-04-26T08:52:25.886Z,7.91
2023-04-26T08:53:23.977Z,7.86
2023-04-26T08:54:23.920Z,7.83
2023-04-26T08:55:25.451Z,7.74
2023-04-26T08:56:23.908Z,7.66
2023-04-26T08:57:23.929Z,7.60
2023-04-26T08:58:23.904Z,7.55
2023-04-26T08:59:23.874Z,7.60
2023-04-26T09:00:23.923Z,7.61
2023-04-26T09:01:23.985Z,7.64
2023-04-26T09:02:26.311Z,7.68
2023-04-26T09:03:24.001Z,7.73
2023-04-26T09:04:24.006Z,7.69
2023-04-26T09:05:24.030Z,7.71
2023-04-26T09:06:25.961Z,7.68
2023-04-26T09:07:23.843Z,7.68
2023-04-26T09:08:23.801Z,7.73
2023-04-26T09:09:25.776Z,7.74
2023-04-26T09:10:25.317Z,7.78
2023-04-26T09:11:23.745Z,7.83
2023-04-26T09:12:23.738Z,7.88
2023-04-26T09:13:23.712Z,7.95
2023-04-26T09:14:23.702Z,7.88
2023-04-26T09:15:23.713Z,7.86
2023-04-26T09:16:25.432Z,7.86
2023-04-26T09:17:23.784Z,7.88
2023-04-26T09:18:23.683Z,7.91
2023-04-26T09:19:23.642Z,7.94
2023-04-26T09:20:23.719Z,7.94
2023-04-26T09:21:23.695Z,7.95
2023-04-26T09:22:23.626Z,7.96
2023-04-26T09:23:23.597Z,7.96
2023-04-26T09:24:23.598Z,7.96
2023-04-26T09:25:24.447Z,7.94
2023-04-26T09:26:25.433Z,7.91
2023-04-26T09:27:25.460Z,7.91
2023-04-26T09:28:23.579Z,7.94
2023-04-26T09:29:23.575Z,7.91
2023-04-26T09:30:23.531Z,7.91
2023-04-26T09:31:23.571Z,7.91
2023-04-26T09:32:23.507Z,7.87
2023-04-26T09:33:24.928Z,7.87
2023-04-26T09:34:23.499Z,7.94
2023-04-26T09:35:23.511Z,7.98
2023-04-26T09:36:26.680Z,7.98
2023-04-26T09:37:23.501Z,7.99
2023-04-26T09:38:24.530Z,7.99
2023-04-26T09:39:23.425Z,8.02
2023-04-26T09:40:23.429Z,8.04
2023-04-26T09:41:23.490Z,8.05
2023-04-26T09:42:23.461Z,8.10
2023-04-26T09:43:23.387Z,8.13
2023-04-26T09:44:23.407Z,8.17
2023-04-26T09:45:23.427Z,8.20
2023-04-26T09:46:23.409Z,8.19
2023-04-26T09:47:23.375Z,8.17
2023-04-26T09:48:23.421Z,8.17
2023-04-26T09:49:23.322Z,8.14
2023-04-26T09:50:23.305Z,8.10
2023-04-26T09:51:23.529Z,8.06
2023-04-26T09:52:23.323Z,8.02
2023-04-26T09:53:23.272Z,8.02
2023-04-26T09:54:24.606Z,8.04
2023-04-26T09:55:34.204Z,8.06
2023-04-26T09:56:24.258Z,8.05
2023-04-26T09:57:23.233Z,8.06
2023-04-26T09:58:23.246Z,8.13
2023-04-26T09:59:24.604Z,8.17
2023-04-26T10:00:23.208Z,8.16
2023-04-26T10:01:23.261Z,8.16
2023-04-26T10:02:23.315Z,8.17
2023-04-26T10:03:24.765Z,8.20
2023-04-26T10:04:23.218Z,8.21
2023-04-26T10:05:23.155Z,8.24
2023-04-26T10:06:23.157Z,8.29
2023-04-26T10:07:23.177Z,8.37
2023-04-26T10:08:23.110Z,8.35
2023-04-26T10:09:24.837Z,8.37
2023-04-26T10:10:24.615Z,8.37
2023-04-26T10:11:23.088Z,8.37
2023-04-26T10:12:23.075Z,8.41
2023-04-26T10:13:23.065Z,8.50
2023-04-26T10:14:23.053Z,8.55
2023-04-26T10:15:23.031Z,8.57
2023-04-26T10:16:23.085Z,8.59
2023-04-26T10:17:23.154Z,8.52
2023-04-26T10:18:23.006Z,8.41
2023-04-26T10:19:23.004Z,8.41
2023-04-26T10:20:22.999Z,8.46
2023-04-26T10:21:22.967Z,8.52
2023-04-26T10:22:23.011Z,8.56
2023-04-26T10:23:22.955Z,8.59
2023-04-26T10:24:23.063Z,8.56
2023-04-26T10:25:23.005Z,8.56
2023-04-26T10:26:24.935Z,8.57
2023-04-26T10:27:24.314Z,8.62
2023-04-26T10:28:22.894Z,8.67
2023-04-26T10:29:22.978Z,8.71
2023-04-26T10:30:22.885Z,8.77
2023-04-26T10:31:22.974Z,8.80
2023-04-26T10:32:22.875Z,8.80
2023-04-26T10:33:26.328Z,8.74
2023-04-26T10:34:22.868Z,8.70
2023-04-26T10:35:22.824Z,8.70
2023-04-26T10:36:22.809Z,8.71
2023-04-26T10:37:22.846Z,8.74
2023-04-26T10:38:22.826Z,8.78
2023-04-26T10:39:24.659Z,8.81
2023-04-26T10:40:22.835Z,8.80
2023-04-26T10:41:22.761Z,8.71
2023-04-26T10:42:23.967Z,8.68
2023-04-26T10:43:23.743Z,8.62
2023-04-26T10:44:24.498Z,8.60
2023-04-26T10:45:22.763Z,8.60
2023-04-26T10:46:22.797Z,8.53
2023-04-26T10:47:22.815Z,8.49
2023-04-26T10:48:22.703Z,8.46
2023-04-26T10:49:24.323Z,8.52
2023-04-26T10:50:22.668Z,8.60
2023-04-26T10:51:22.664Z,8.71
2023-04-26T10:52:22.674Z,8.81
2023-04-26T10:53:22.664Z,8.88
2023-04-26T10:54:22.625Z,8.89
2023-04-26T10:55:24.304Z,8.93
2023-04-26T10:56:22.605Z,9.03
2023-04-26T10:57:23.978Z,9.11
2023-04-26T10:58:22.596Z,9.19
2023-04-26T10:59:36.139Z,9.18
2023-04-26T11:00:23.572Z,9.12
2023-04-26T11:01:22.602Z,9.12
2023-04-26T11:02:22.574Z,9.14
2023-04-26T11:03:24.666Z,9.15
2023-04-26T11:04:22.735Z,9.06
2023-04-26T11:05:24.865Z,9.03
2023-04-26T11:06:24.585Z,9.03
2023-04-26T11:07:25.805Z,9.06
2023-04-26T11:08:22.466Z,9.03
2023-04-26T11:09:22.451Z,9.01
2023-04-26T11:10:22.534Z,8.95
2023-04-26T11:11:22.429Z,8.95
2023-04-26T11:12:22.438Z,8.96
2023-04-26T11:13:25.618Z,8.95
2023-04-26T11:14:22.435Z,8.96
2023-04-26T11:15:22.392Z,8.99
2023-04-26T11:16:22.442Z,9.01
2023-04-26T11:17:22.483Z,9.04
2023-04-26T11:18:22.365Z,9.04
2023-04-26T11:19:22.395Z,9.08
2023-04-26T11:20:22.339Z,9.12
2023-04-26T11:21:22.338Z,9.16
2023-04-26T11:22:22.321Z,9.15
2023-04-26T11:23:24.144Z,9.16
2023-04-26T11:24:22.297Z,9.18
2023-04-26T11:25:22.280Z,9.24
2023-04-26T11:26:27.260Z,9.29
2023-04-26T11:27:22.535Z,9.36
2023-04-26T11:28:22.252Z,9.48
2023-04-26T11:29:22.243Z,9.59
2023-04-26T11:30:24.068Z,9.67
2023-04-26T11:31:22.320Z,9.73
2023-04-26T11:32:22.224Z,9.69
2023-04-26T11:33:22.202Z,9.70
2023-04-26T11:34:22.264Z,9.70
2023-04-26T11:35:22.177Z,9.69
2023-04-26T11:36:30.873Z,9.70
2023-04-26T11:37:22.202Z,9.72
2023-04-26T11:38:22.158Z,9.75
2023-04-26T11:39:22.125Z,9.78
2023-04-26T11:40:22.133Z,9.80
2023-04-26T11:41:22.116Z,9.80
2023-04-26T11:42:22.155Z,9.75
2023-04-26T11:43:22.245Z,9.70
2023-04-26T11:44:22.092Z,9.60
2023-04-26T11:45:22.061Z,9.59
2023-04-26T11:46:22.134Z,9.60
2023-04-26T11:47:22.055Z,9.59
2023-04-26T11:48:24.148Z,9.62
2023-04-26T11:49:22.021Z,9.60
2023-04-26T11:50:22.056Z,9.59
2023-04-26T11:51:22.000Z,9.59
2023-04-26T11:52:21.998Z,9.48
2023-04-26T11:53:21.982Z,9.40
2023-04-26T11:54:23.329Z,9.37
2023-04-26T11:55:21.960Z,9.30
2023-04-26T11:56:22.084Z,9.30
2023-04-26T11:57:21.934Z,9.26
2023-04-26T11:58:21.934Z,9.22
2023-04-26T11:59:21.986Z,9.18
2023-04-26T12:00:22.472Z,9.14
2023-04-26T12:01:21.897Z,9.12
2023-04-26T12:02:21.983Z,9.15
2023-04-26T12:03:22.046Z,9.16
2023-04-26T12:04:22.028Z,9.16
2023-04-26T12:05:21.909Z,9.18
2023-04-26T12:06:21.852Z,9.19
2023-04-26T12:07:21.833Z,9.22
2023-04-26T12:08:21.827Z,9.18
2023-04-26T12:09:21.838Z,9.15
2023-04-26T12:10:21.824Z,9.12
2023-04-26T12:11:21.782Z,9.15
2023-04-26T12:12:21.783Z,9.16
2023-04-26T12:13:21.784Z,9.15
2023-04-26T12:14:21.804Z,9.16
2023-04-26T12:15:21.743Z,9.18
2023-04-26T12:16:26.760Z,9.19
2023-04-26T12:17:22.941Z,9.19
2023-04-26T12:18:21.742Z,9.19
2023-04-26T12:19:21.697Z,9.15
2023-04-26T12:20:23.432Z,9.15
2023-04-26T12:21:21.674Z,9.16
2023-04-26T12:22:21.668Z,9.22
2023-04-26T12:23:21.654Z,9.26
2023-04-26T12:24:21.661Z,9.26
2023-04-26T12:25:21.671Z,9.26
2023-04-26T12:26:22.852Z,9.27
2023-04-26T12:27:21.622Z,9.27
2023-04-26T12:28:21.610Z,9.27
2023-04-26T12:29:21.610Z,9.27
2023-04-26T12:30:21.577Z,9.27
2023-04-26T12:31:21.648Z,9.32
2023-04-26T12:32:22.641Z,9.33
2023-04-26T12:33:23.462Z,9.33
2023-04-26T12:34:21.528Z,9.33
2023-04-26T12:35:21.539Z,9.32
2023-04-26T12:36:21.508Z,9.32
2023-04-26T12:37:24.776Z,9.26
2023-04-26T12:38:21.499Z,9.24
2023-04-26T12:39:21.490Z,9.26
2023-04-26T12:40:21.520Z,9.30
2023-04-26T12:41:21.463Z,9.24
2023-04-26T12:42:21.454Z,9.16
2023-04-26T12:43:21.463Z,9.06
2023-04-26T12:44:22.649Z,9.03
2023-04-26T12:45:21.416Z,9.01
2023-04-26T12:46:21.496Z,9.11
2023-04-26T12:47:21.419Z,9.22
2023-04-26T12:48:21.430Z,9.32
2023-04-26T12:49:21.373Z,9.40
2023-04-26T12:50:21.417Z,9.45
2023-04-26T12:51:22.409Z,9.51
2023-04-26T12:52:21.385Z,9.54
2023-04-26T12:53:21.338Z,9.59
2023-04-26T12:54:21.316Z,9.62
2023-04-26T12:55:21.339Z,9.65
2023-04-26T12:56:21.354Z,9.65
2023-04-26T12:57:21.314Z,9.70
2023-04-26T12:58:21.591Z,9.75
2023-04-26T12:59:21.269Z,9.77
2023-04-26T13:00:21.249Z,9.78
2023-04-26T13:01:21.343Z,9.78
2023-04-26T13:02:21.313Z,9.69
2023-04-26T13:03:21.426Z,9.65
2023-04-26T13:04:23.595Z,9.65
2023-04-26T13:05:21.275Z,9.69
2023-04-26T13:06:21.192Z,9.72
2023-04-26T13:07:21.200Z,9.75
2023-04-26T13:08:21.212Z,9.77
2023-04-26T13:09:21.214Z,9.77
2023-04-26T13:10:21.148Z,9.80
2023-04-26T13:11:22.884Z,9.83
2023-04-26T13:12:21.132Z,9.87
2023-04-26T13:13:26.306Z,9.90
2023-04-26T13:14:23.856Z,9.98
2023-04-26T13:15:21.105Z,10.03
2023-04-26T13:16:21.176Z,10.08
2023-04-26T13:17:21.079Z,10.14
2023-04-26T13:18:21.065Z,10.14
2023-04-26T13:19:21.056Z,10.17
2023-04-26T13:20:21.090Z,10.20
2023-04-26T13:21:21.033Z,10.26
2023-04-26T13:22:21.077Z,10.27